createdAt,value
2023-05-22T00:01:44.688Z,100046.30
2023-05-22T00:04:13.566Z,100042.89
2023-05-22T00:06:44.010Z,100041.10
2023-05-22T00:09:11.223Z,100041.36
2023-05-22T00:11:39.831Z,100038.77
2023-05-22T00:14:07.744Z,100040.20
2023-05-22T00:16:34.999Z,100040.27
2023-05-22T00:19:02.279Z,100035.08
2023-05-22T00:21:35.089Z,100034.41
2023-05-22T00:24:02.625Z,100032.06
2023-05-22T00:26:29.901Z,100031.77
2023-05-22T00:28:57.075Z,100034.34
2023-05-22T00:31:24.528Z,100035.67
2023-05-22T00:33:51.761Z,100033.40
2023-05-22T00:36:46.836Z,100031.05
2023-05-22T00:39:14.187Z,100030.66
2023-05-22T00:41:41.407Z,100027.42
2023-05-22T00:44:08.619Z,100027.89
2023-05-22T00:46:36.728Z,100028.42
2023-05-22T00:49:05.338Z,100024.72
2023-05-22T00:51:33.078Z,100027.36
2023-05-22T00:54:01.339Z,100024.75
2023-05-22T00:56:29.382Z,100024.33
2023-05-22T00:58:56.928Z,100023.55
2023-05-22T01:01:26.773Z,100022.97
2023-05-22T01:03:54.265Z,100020.92
2023-05-22T01:06:24.660Z,100017.20
2023-05-22T01:08:52.011Z,100017.08
2023-05-22T01:11:42.440Z,100013.84
2023-05-22T01:14:26.042Z,100012.80
2023-05-22T01:17:09.388Z,100015.30
2023-05-22T01:20:07.623Z,100012.10
2023-05-22T01:22:43.686Z,100016.67
2023-05-22T01:25:17.129Z,100016.95
2023-05-22T01:28:03.219Z,100015.19
2023-05-22T01:30:59.627Z,100017.80
2023-05-22T01:33:30.969Z,100022.38
2023-05-22T01:36:01.664Z,100023.75
2023-05-22T01:38:30.361Z,100020.88
2023-05-22T01:40:59.986Z,100020.84
2023-05-22T01:43:27.730Z,100022.40
2023-05-22T01:45:54.904Z,100022.81
2023-05-22T01:48:22.353Z,100024.34
2023-05-22T01:50:52.793Z,100019.56
2023-05-22T01:53:26.249Z,100020.20
2023-05-22T01:56:06.323Z,100027.42
2023-05-22T01:58:53.177Z,100023.60
2023-05-22T02:01:22.904Z,100021.48
2023-05-22T02:03:56.869Z,100025.67
2023-05-22T02:06:29.163Z,100022.10
2023-05-22T02:08:57.360Z,100025.05
2023-05-22T02:11:27.850Z,100024.92
2023-05-22T02:13:56.770Z,100020.36
2023-05-22T02:16:24.706Z,100021.23
2023-05-22T02:18:54.311Z,100020.61
2023-05-22T02:21:22.593Z,100023.23
2023-05-22T02:23:49.963Z,100025.95
2023-05-22T02:26:18.804Z,100028.98
2023-05-22T02:28:46.018Z,100033.77
2023-05-22T02:31:13.339Z,100031.11
2023-05-22T02:33:40.712Z,100031.44
2023-05-22T02:36:11.385Z,100030.11
2023-05-22T02:38:39.483Z,100032.85
2023-05-22T02:41:08.232Z,100036.45
2023-05-22T02:43:35.393Z,100039.77
2023-05-22T02:46:03.067Z,100043.98
2023-05-22T02:48:30.419Z,100041.37
2023-05-22T02:50:57.637Z,100041.65
2023-05-22T02:53:25.965Z,100043.11
2023-05-22T02:55:53.368Z,100043.66
2023-05-22T02:58:23.421Z,100047.08
2023-05-22T03:00:53.257Z,100040.43
2023-05-22T03:03:20.574Z,100042.83
2023-05-22T03:05:48.098Z,100034.60
2023-05-22T03:08:16.163Z,100035.48
2023-05-22T03:10:43.421Z,100037.56
2023-05-22T03:13:10.571Z,100037.77
2023-05-22T03:15:38.142Z,100045.09
2023-05-22T03:18:11.702Z,100039.45
2023-05-22T03:20:40.051Z,100037.77
2023-05-22T03:23:07.424Z,100038.05
2023-05-22T03:25:34.806Z,100029.92
2023-05-22T03:28:02.391Z,100032.43
2023-05-22T03:30:31.568Z,100034.08
2023-05-22T03:33:19.075Z,100032.26
2023-05-22T03:35:46.634Z,100035.27
2023-05-22T03:38:14.044Z,100030.94
2023-05-22T03:40:41.472Z,100029.98
2023-05-22T03:43:09.273Z,100029.73
2023-05-22T03:45:36.451Z,100030.77
2023-05-22T03:48:04.006Z,100023.86
2023-05-22T03:50:31.378Z,100017.23
2023-05-22T03:52:58.480Z,100017.02
2023-05-22T03:55:26.882Z,100019.11
2023-05-22T03:57:54.022Z,100013.20
2023-05-22T04:00:21.333Z,100015.23
2023-05-22T04:02:50.893Z,100013.61
2023-05-22T04:05:18.108Z,100010.73
2023-05-22T04:07:45.392Z,100007.47
2023-05-22T04:10:12.665Z,100003.74
2023-05-22T04:12:39.963Z,100005.09
2023-05-22T04:15:07.884Z,100005.95
2023-05-22T04:17:40.411Z,100007.23
2023-05-22T04:20:08.939Z,100007.16
2023-05-22T04:22:36.246Z,100004.75
2023-05-22T04:25:03.703Z,100003.27
2023-05-22T04:27:30.872Z,100002.14
2023-05-22T04:30:00.341Z,100000.27
2023-05-22T04:32:27.773Z,100000.91
2023-05-22T04:34:54.898Z,100000.06
2023-05-22T04:37:21.979Z,99999.71
2023-05-22T04:39:53.106Z,99996.44
2023-05-22T04:42:20.710Z,99997.04
2023-05-22T04:44:48.572Z,99996.38
2023-05-22T04:47:16.052Z,99990.98
2023-05-22T04:49:43.875Z,99988.13
2023-05-22T04:52:11.843Z,99983.43
2023-05-22T04:54:39.227Z,99981.83
2023-05-22T04:57:06.332Z,99985.52
2023-05-22T04:59:38.320Z,99984.59
2023-05-22T05:02:06.494Z,99986.05
2023-05-22T05:04:34.202Z,99983.54
2023-05-22T05:07:02.681Z,99982.17
2023-05-22T05:09:29.980Z,99981.29
2023-05-22T05:11:57.155Z,99984.52
2023-05-22T05:14:24.734Z,99986.95
2023-05-22T05:16:53.171Z,99986.69
2023-05-22T05:19:24.596Z,99980.32
2023-05-22T05:21:52.563Z,99983.39
2023-05-22T05:24:21.572Z,99977.19
2023-05-22T05:26:50.579Z,99985.09
2023-05-22T05:29:19.517Z,99985.43
2023-05-22T05:31:55.792Z,99985.62
2023-05-22T05:34:38.842Z,99985.63
2023-05-22T05:37:17.406Z,99987.50
2023-05-22T05:39:45.107Z,99985.42
2023-05-22T05:42:12.381Z,99983.20
2023-05-22T05:44:39.721Z,99980.96
2023-05-22T05:47:07.704Z,99979.02
2023-05-22T05:49:35.773Z,99977.83
2023-05-22T05:52:04.657Z,99975.95
2023-05-22T05:54:32.658Z,99975.11
2023-05-22T05:57:04.829Z,99973.84
2023-05-22T05:59:32.503Z,99965.48
2023-05-22T06:02:19.770Z,99966.84
2023-05-22T06:04:50.019Z,99965.02
2023-05-22T06:07:18.300Z,99963.11
2023-05-22T06:09:47.200Z,99961.94
2023-05-22T06:12:22.429Z,99958.34
2023-05-22T06:14:49.708Z,99954.48
2023-05-22T06:17:17.963Z,99955.38
2023-05-22T06:19:45.870Z,99957.65
2023-05-22T06:22:13.628Z,99958.84
2023-05-22T06:24:41.578Z,99960.64
2023-05-22T06:27:15.160Z,99958.82
2023-05-22T06:29:43.643Z,99959.60
2023-05-22T06:32:11.065Z,99959.95
2023-05-22T06:34:42.221Z,99958.14
2023-05-22T06:37:12.533Z,99954.88
2023-05-22T06:39:42.178Z,99958.27
2023-05-22T06:42:33.351Z,99954.02
2023-05-22T06:45:20.175Z,99955.70
2023-05-22T06:48:11.623Z,99953.45
2023-05-22T06:50:44.023Z,99958.05
2023-05-22T06:53:11.554Z,99955.76
2023-05-22T06:55:38.725Z,99957.45
2023-05-22T06:58:11.040Z,99954.66
2023-05-22T07:00:39.520Z,99952.75
2023-05-22T07:03:16.406Z,99952.70
2023-05-22T07:06:20.455Z,99952.74
2023-05-22T07:08:48.036Z,99954.98
2023-05-22T07:11:15.289Z,99949.02
2023-05-22T07:13:42.498Z,99950.68
2023-05-22T07:16:09.982Z,99951.50
2023-05-22T07:18:40.357Z,99951.14
2023-05-22T07:21:07.894Z,99954.00
2023-05-22T07:23:36.257Z,99955.37
2023-05-22T07:26:03.930Z,99952.08
2023-05-22T07:28:34.457Z,99944.02
2023-05-22T07:31:09.362Z,99943.95
2023-05-22T07:33:37.518Z,99942.31
2023-05-22T07:36:05.101Z,99942.86
2023-05-22T07:38:32.567Z,99943.92
2023-05-22T07:41:04.863Z,99943.92
2023-05-22T07:43:33.519Z,99940.00
2023-05-22T07:46:00.948Z,99938.23
2023-05-22T07:48:32.423Z,99936.75
2023-05-22T07:50:59.609Z,99934.20
2023-05-22T07:53:27.108Z,99930.34
2023-05-22T07:55:56.024Z,99929.43
2023-05-22T07:58:24.424Z,99928.44
2023-05-22T08:00:52.321Z,99931.71
2023-05-22T08:03:23.792Z,99929.52
2023-05-22T08:05:54.847Z,99932.02
2023-05-22T08:08:22.104Z,99932.27
2023-05-22T08:11:03.171Z,99932.34
2023-05-22T08:13:32.053Z,99930.67
2023-05-22T08:16:00.433Z,99935.19
2023-05-22T08:18:29.546Z,99933.72
2023-05-22T08:20:57.642Z,99936.48
2023-05-22T08:23:24.992Z,99933.45
2023-05-22T08:25:52.351Z,99932.80
2023-05-22T08:28:20.104Z,99932.45
2023-05-22T08:30:47.424Z,99933.27
2023-05-22T08:33:15.113Z,99935.77
2023-05-22T08:35:42.701Z,99938.69
2023-05-22T08:38:22.562Z,99938.20
2023-05-22T08:40:50.972Z,99938.59
2023-05-22T08:43:21.002Z,99931.09
2023-05-22T08:45:56.224Z,99932.09
2023-05-22T08:48:24.363Z,99930.13
2023-05-22T08:50:58.347Z,99929.86
2023-05-22T08:53:29.432Z,99931.77
2023-05-22T08:55:56.967Z,99934.44
2023-05-22T08:58:24.962Z,99929.66
2023-05-22T09:00:53.409Z,99927.42
2023-05-22T09:03:21.878Z,99925.64
2023-05-22T09:05:49.701Z,99927.22
2023-05-22T09:08:20.780Z,99926.73
2023-05-22T09:10:48.458Z,99924.98
2023-05-22T09:13:27.071Z,99926.63
2023-05-22T09:15:58.654Z,99927.70
2023-05-22T09:18:29.874Z,99925.77
2023-05-22T09:21:04.866Z,99928.92
2023-05-22T09:23:34.380Z,99929.67
2023-05-22T09:26:03.138Z,99928.20
2023-05-22T09:28:35.721Z,99927.59
2023-05-22T09:31:04.725Z,99934.21
2023-05-22T09:33:32.588Z,99929.02
2023-05-22T09:36:03.285Z,99929.64
2023-05-22T09:38:31.752Z,99929.14
2023-05-22T09:40:58.936Z,99928.72
2023-05-22T09:43:26.374Z,99929.66
2023-05-22T09:46:02.646Z,99928.48
2023-05-22T09:48:40.957Z,99928.66
2023-05-22T09:51:10.611Z,99927.05
2023-05-22T09:53:41.829Z,99926.35
2023-05-22T09:56:17.475Z,99924.73
2023-05-22T09:58:48.920Z,99926.27
2023-05-22T10:01:19.693Z,99925.50
2023-05-22T10:03:49.583Z,99925.94
2023-05-22T10:06:18.977Z,99922.07
2023-05-22T10:08:54.740Z,99921.50
2023-05-22T10:11:27.110Z,99922.02
2023-05-22T10:13:55.202Z,99918.91
2023-05-22T10:16:23.551Z,99914.56
2023-05-22T10:18:52.789Z,99916.80
2023-05-22T10:21:21.522Z,99917.25
2023-05-22T10:23:52.756Z,99912.96
2023-05-22T10:26:20.174Z,99910.23
2023-05-22T10:28:57.800Z,99909.40
2023-05-22T10:31:57.771Z,99905.56
2023-05-22T10:34:50.917Z,99909.39
2023-05-22T10:37:46.053Z,99907.58
2023-05-22T10:40:48.571Z,99910.17
2023-05-22T10:43:16.275Z,99905.35
2023-05-22T10:45:47.076Z,99903.91
2023-05-22T10:48:15.252Z,99903.98
2023-05-22T10:50:53.046Z,99908.77
2023-05-22T10:53:23.849Z,99907.84
2023-05-22T10:55:55.732Z,99905.69
2023-05-22T10:58:34.730Z,99899.23
2023-05-22T11:01:08.318Z,99897.98
2023-05-22T11:03:58.153Z,99897.45
2023-05-22T11:06:33.225Z,99891.79
2023-05-22T11:09:00.667Z,99896.64
2023-05-22T11:11:28.540Z,99893.15
2023-05-22T11:14:06.306Z,99892.38
2023-05-22T11:16:34.388Z,99889.06
2023-05-22T11:21:45.005Z,99892.30
2023-05-22T11:24:20.572Z,99888.95
2023-05-22T11:27:07.571Z,99896.25
2023-05-22T11:29:36.019Z,99894.44
2023-05-22T11:32:03.969Z,99898.56
2023-05-22T11:34:32.258Z,99894.09
2023-05-22T11:37:00.479Z,99895.14
2023-05-22T11:39:27.844Z,99896.15
2023-05-22T11:41:55.376Z,99896.23
2023-05-22T11:44:23.111Z,99894.14
2023-05-22T11:46:50.784Z,99891.29
2023-05-22T11:49:18.436Z,99892.60
2023-05-22T11:51:48.883Z,99892.22
2023-05-22T11:54:19.358Z,99889.22
2023-05-22T11:56:48.380Z,99889.73
2023-05-22T11:59:16.871Z,99887.48
2023-05-22T12:01:45.199Z,99886.80
2023-05-22T12:04:13.119Z,99888.80
2023-05-22T12:06:41.462Z,99886.94
2023-05-22T12:09:09.345Z,99885.52
2023-05-22T12:11:37.026Z,99882.24
2023-05-22T12:14:06.476Z,99876.77
2023-05-22T12:16:37.736Z,99873.98
2023-05-22T12:19:12.290Z,99871.30
2023-05-22T12:21:42.229Z,99875.91
2023-05-22T12:24:10.352Z,99876.79
2023-05-22T12:26:38.126Z,99877.11
2023-05-22T12:29:05.854Z,99876.45
2023-05-22T12:31:37.640Z,99874.27
2023-05-22T12:34:08.750Z,99873.19
2023-05-22T12:36:41.400Z,99874.17
2023-05-22T12:39:10.648Z,99875.25
2023-05-22T12:41:39.332Z,99873.56
2023-05-22T12:44:07.198Z,99875.02
2023-05-22T12:46:35.430Z,99871.77
2023-05-22T12:49:03.665Z,99872.43
2023-05-22T12:51:32.601Z,99875.77
2023-05-22T12:54:01.847Z,99871.98
2023-05-22T12:56:36.892Z,99869.02
2023-05-22T12:59:04.568Z,99868.30
2023-05-22T13:01:32.299Z,99862.38
2023-05-22T13:03:59.907Z,99867.44
2023-05-22T13:06:30.289Z,99865.40
2023-05-22T13:08:59.527Z,99869.64
2023-05-22T13:11:28.217Z,99868.55
2023-05-22T13:13:55.973Z,99860.76
2023-05-22T13:16:24.116Z,99867.11
2023-05-22T13:18:52.564Z,99872.18
2023-05-22T13:21:20.228Z,99876.05
2023-05-22T13:23:47.957Z,99878.34
2023-05-22T13:26:15.652Z,99885.20
2023-05-22T13:28:43.709Z,99881.62
2023-05-22T13:31:11.407Z,99885.72
2023-05-22T13:33:39.327Z,99891.88
2023-05-22T13:36:07.583Z,99886.38
2023-05-22T13:38:35.795Z,99884.28
2023-05-22T13:41:03.695Z,99881.98
2023-05-22T13:43:31.520Z,99883.23
2023-05-22T13:45:59.177Z,99882.96
2023-05-22T13:48:26.807Z,99885.98
2023-05-22T13:50:54.504Z,99890.35
2023-05-22T13:53:22.120Z,99887.38
2023-05-22T13:56:10.515Z,99887.98
2023-05-22T13:58:38.158Z,99883.08
2023-05-22T14:01:06.105Z,99881.42
2023-05-22T14:03:34.123Z,99876.89
2023-05-22T14:06:02.776Z,99877.17
2023-05-22T14:08:30.448Z,99870.80
2023-05-22T14:10:58.498Z,99874.42
2023-05-22T14:13:26.294Z,99874.48
2023-05-22T14:15:54.083Z,99876.88
2023-05-22T14:18:21.751Z,99875.11
2023-05-22T14:20:49.597Z,99877.23
2023-05-22T14:23:17.264Z,99881.51
2023-05-22T14:25:45.566Z,99877.83
2023-05-22T14:28:14.326Z,99877.19
2023-05-22T14:30:42.405Z,99872.84
2023-05-22T14:33:11.534Z,99878.33
2023-05-22T14:35:39.561Z,99870.58
2023-05-22T14:38:08.445Z,99867.80
2023-05-22T14:40:36.376Z,99867.83
2023-05-22T14:43:03.994Z,99867.98
2023-05-22T14:45:31.828Z,99866.42
2023-05-22T14:48:00.609Z,99867.70
2023-05-22T14:50:28.635Z,99867.83
2023-05-22T14:52:57.045Z,99869.04
2023-05-22T14:55:31.099Z,99871.18
2023-05-22T14:58:01.696Z,99872.20
2023-05-22T15:00:29.689Z,99868.75
2023-05-22T15:02:57.482Z,99871.33
2023-05-22T15:05:26.944Z,99870.39
2023-05-22T15:07:58.695Z,99871.29
2023-05-22T15:10:26.433Z,99869.80
2023-05-22T15:12:54.368Z,99868.38
2023-05-22T15:15:22.091Z,99869.55
2023-05-22T15:17:49.811Z,99870.79
2023-05-22T15:20:17.710Z,99868.81
2023-05-22T15:22:45.359Z,99868.23
2023-05-22T15:25:17.743Z,99866.67
2023-05-22T15:27:46.505Z,99866.12
2023-05-22T15:30:17.156Z,99864.00
2023-05-22T15:32:45.735Z,99865.46
2023-05-22T15:35:16.439Z,99866.27
2023-05-22T15:37:44.061Z,99866.80
2023-05-22T15:40:16.503Z,99865.48
2023-05-22T15:42:44.262Z,99870.45
2023-05-22T15:45:12.097Z,99868.95
2023-05-22T15:47:40.323Z,99867.88
2023-05-22T15:50:08.295Z,99869.52
2023-05-22T15:52:36.492Z,99868.52
2023-05-22T15:55:04.530Z,99869.55
2023-05-22T15:57:33.933Z,99874.30
2023-05-22T16:00:02.084Z,99874.27
2023-05-22T16:02:32.319Z,99873.76
2023-05-22T16:05:01.309Z,99880.90
2023-05-22T16:07:29.125Z,99882.52
2023-05-22T16:09:56.870Z,99889.02
2023-05-22T16:12:24.637Z,99890.66
2023-05-22T16:14:59.460Z,99891.42
2023-05-22T16:17:57.817Z,99894.23
2023-05-22T16:20:25.593Z,99894.90
2023-05-22T16:22:53.355Z,99897.42
2023-05-22T16:25:21.381Z,99898.24
2023-05-22T16:27:49.130Z,99901.89
2023-05-22T16:30:18.380Z,99902.92
2023-05-22T16:32:48.841Z,99901.95
2023-05-22T16:35:16.925Z,99903.86
2023-05-22T16:37:44.716Z,99908.98
2023-05-22T16:40:12.644Z,99907.30
2023-05-22T16:42:40.640Z,99914.80
2023-05-22T16:45:09.015Z,99911.13
2023-05-22T16:47:36.953Z,99912.98
2023-05-22T16:50:05.080Z,99911.25
2023-05-22T16:52:32.750Z,99914.29
2023-05-22T16:55:01.497Z,99912.86
2023-05-22T16:57:29.340Z,99911.37
2023-05-22T16:59:57.993Z,99912.73
2023-05-22T17:02:26.227Z,99914.09
2023-05-22T17:04:54.729Z,99912.24
2023-05-22T17:07:22.419Z,99912.39
2023-05-22T17:09:50.975Z,99916.79
2023-05-22T17:12:19.326Z,99911.29
2023-05-22T17:14:50.547Z,99917.92
2023-05-22T17:17:20.102Z,99920.25
2023-05-22T17:20:23.240Z,99923.93
2023-05-22T17:22:52.802Z,99928.70
2023-05-22T17:25:21.559Z,99930.22
2023-05-22T17:27:49.618Z,99933.63
2023-05-22T17:30:17.467Z,99933.46
2023-05-22T17:32:46.647Z,99932.91
2023-05-22T17:35:15.014Z,99934.64
2023-05-22T17:37:42.637Z,99938.64
2023-05-22T17:40:13.885Z,99944.70
2023-05-22T17:42:44.533Z,99942.97
2023-05-22T17:45:12.363Z,99947.49
2023-05-22T17:47:40.150Z,99950.27
2023-05-22T17:50:08.253Z,99953.28
2023-05-22T17:52:36.423Z,99955.88
2023-05-22T17:55:04.428Z,99955.35
2023-05-22T17:57:33.786Z,99957.44
2023-05-22T18:00:01.472Z,99957.41
2023-05-22T18:02:39.611Z,99961.96
2023-05-22T18:05:07.867Z,99965.09
2023-05-22T18:07:35.484Z,99965.09
2023-05-22T18:10:03.253Z,99968.47
2023-05-22T18:12:32.309Z,99966.42
2023-05-22T18:15:01.294Z,99968.05
2023-05-22T18:17:29.029Z,99968.45
2023-05-22T18:19:56.863Z,99969.93
2023-05-22T18:22:25.792Z,99970.23
2023-05-22T18:24:53.373Z,99972.83
2023-05-22T18:27:21.014Z,99976.34
2023-05-22T18:29:50.871Z,99978.77
2023-05-22T18:32:18.730Z,99980.56
2023-05-22T18:34:46.683Z,99981.61
2023-05-22T18:37:17.527Z,99978.24
2023-05-22T18:39:46.272Z,99979.10
2023-05-22T18:42:14.687Z,99977.44
2023-05-22T18:44:42.349Z,99975.60
2023-05-22T18:47:10.201Z,99976.23
2023-05-22T18:49:38.240Z,99973.61
2023-05-22T18:52:06.740Z,99970.96
2023-05-22T18:54:34.408Z,99973.90
2023-05-22T18:57:02.026Z,99972.61
2023-05-22T18:59:29.637Z,99978.01
2023-05-22T19:01:57.368Z,99975.13
2023-05-22T19:04:25.368Z,99973.85
2023-05-22T19:06:53.828Z,99972.84
2023-05-22T19:09:22.356Z,99972.86
2023-05-22T19:11:50.102Z,99974.83
2023-05-22T19:14:17.755Z,99972.00
2023-05-22T19:16:45.590Z,99972.91
2023-05-22T19:19:15.201Z,99970.23
2023-05-22T19:21:43.133Z,99969.73
2023-05-22T19:24:10.841Z,99969.33
2023-05-22T19:26:38.520Z,99965.02
2023-05-22T19:29:06.153Z,99965.55
2023-05-22T19:31:34.991Z,99962.73
2023-05-22T19:34:02.922Z,99966.01
2023-05-22T19:36:31.719Z,99966.83
2023-05-22T19:38:59.341Z,99968.61
2023-05-22T19:41:26.940Z,99970.09
2023-05-22T19:43:54.670Z,99969.41
2023-05-22T19:46:22.310Z,99969.05
2023-05-22T19:48:50.966Z,99965.86
2023-05-22T19:51:18.960Z,99969.59
2023-05-22T19:53:46.650Z,99970.75
2023-05-22T19:56:14.216Z,99968.86
2023-05-22T19:58:42.037Z,99971.02
2023-05-22T20:01:09.760Z,99970.77
2023-05-22T20:03:37.833Z,99972.92
2023-05-22T20:06:05.775Z,99972.54
2023-05-22T20:08:33.506Z,99971.45
2023-05-22T20:11:01.168Z,99968.67
2023-05-22T20:13:28.867Z,99967.51
2023-05-22T20:15:57.724Z,99968.20
2023-05-22T20:18:25.448Z,99968.42
2023-05-22T20:20:53.116Z,99963.08
2023-05-22T20:23:20.761Z,99965.84
2023-05-22T20:25:48.505Z,99961.68
2023-05-22T20:28:16.278Z,99962.52
2023-05-22T20:30:43.861Z,99962.86
2023-05-22T20:33:12.150Z,99962.82
2023-05-22T20:35:40.285Z,99963.54
2023-05-22T20:38:10.032Z,99964.73
2023-05-22T20:40:37.969Z,99967.73
2023-05-22T20:43:05.689Z,99964.61
2023-05-22T20:45:33.620Z,99966.94
2023-05-22T20:48:01.331Z,99967.88
2023-05-22T20:50:28.928Z,99968.25
2023-05-22T20:52:57.344Z,99964.04
2023-05-22T20:55:25.769Z,99962.98
2023-05-22T20:57:53.486Z,99962.05
2023-05-22T21:00:25.096Z,99960.38
2023-05-22T21:02:53.236Z,99957.94
2023-05-22T21:05:23.921Z,99955.09
2023-05-22T21:07:51.492Z,99951.05
2023-05-22T21:10:19.123Z,99951.36
2023-05-22T21:12:46.818Z,99946.27
2023-05-22T21:15:14.451Z,99944.31
2023-05-22T21:17:43.214Z,99943.94
2023-05-22T21:20:11.279Z,99941.70
2023-05-22T21:22:39.032Z,99943.73
2023-05-22T21:25:07.318Z,99946.80
2023-05-22T21:27:35.190Z,99946.01
2023-05-22T21:30:02.916Z,99948.48
2023-05-22T21:32:30.617Z,99951.98
2023-05-22T21:34:58.252Z,99949.23
2023-05-22T21:37:25.858Z,99950.16
2023-05-22T21:39:53.482Z,99948.59
2023-05-22T21:42:21.480Z,99944.52
2023-05-22T21:44:49.106Z,99943.04
2023-05-22T21:47:17.040Z,99945.88
2023-05-22T21:49:44.622Z,99940.19
2023-05-22T21:52:12.194Z,99948.52
2023-05-22T21:54:39.898Z,99947.05
2023-05-22T21:57:07.582Z,99948.09
2023-05-22T21:59:35.249Z,99946.52
2023-05-22T22:02:03.033Z,99945.48
2023-05-22T22:04:30.796Z,99941.84
2023-05-22T22:06:58.404Z,99940.11
2023-05-22T22:09:26.007Z,99943.10
2023-05-22T22:11:53.636Z,99936.00
2023-05-22T22:14:21.333Z,99935.77
2023-05-22T22:16:50.838Z,99931.48
2023-05-22T22:19:18.700Z,99928.59
2023-05-22T22:21:46.523Z,99929.06
2023-05-22T22:24:15.728Z,99927.70
2023-05-22T22:26:45.893Z,99924.61
2023-05-22T22:29:13.535Z,99929.73
2023-05-22T22:31:41.472Z,99929.90
2023-05-22T22:34:09.307Z,99925.59
2023-05-22T22:36:40.321Z,99925.08
2023-05-22T22:39:07.895Z,99923.45
2023-05-22T22:41:35.725Z,99921.38
2023-05-22T22:44:03.474Z,99920.54
2023-05-22T22:46:31.153Z,99925.90
2023-05-22T22:49:02.022Z,99921.23
2023-05-22T22:51:32.393Z,99917.83
2023-05-22T22:54:00.099Z,99914.10
2023-05-22T22:56:30.752Z,99910.88
2023-05-22T22:58:58.381Z,99910.55
2023-05-22T23:01:26.148Z,99905.90
2023-05-22T23:03:53.794Z,99904.52
2023-05-22T23:06:21.513Z,99903.02
2023-05-22T23:08:49.140Z,99899.13
2023-05-22T23:11:16.936Z,99900.91
2023-05-22T23:13:44.561Z,99901.16
2023-05-22T23:16:12.305Z,99895.89
2023-05-22T23:18:40.081Z,99896.01
2023-05-22T23:21:07.764Z,99895.77
2023-05-22T23:23:35.463Z,99897.29
2023-05-22T23:26:03.084Z,99899.79
2023-05-22T23:28:30.706Z,99900.75
2023-05-22T23:30:58.837Z,99901.20
2023-05-22T23:33:26.452Z,99905.94
2023-05-22T23:35:54.022Z,99905.42
2023-05-22T23:38:21.827Z,99904.92
2023-05-22T23:40:50.868Z,99903.36
2023-05-22T23:43:20.944Z,99905.64
2023-05-22T23:45:48.724Z,99899.70
2023-05-22T23:48:17.137Z,99898.48
2023-05-22T23:50:44.831Z,99896.65
2023-05-22T23:53:12.404Z,99900.60
2023-05-22T23:55:40.452Z,99903.19
2023-05-22T23:58:08.421Z,99899.34
